sensor_id;sensor_type;location;lat;lon;timestamp;temperature;humidity
71514;DHT22;59335;46.652;21.272;2023-01-25T00:01:07;22.51;35.79
71514;DHT22;59335;46.652;21.272;2023-01-25T00:04:10;22.53;35.74
71514;DHT22;59335;46.652;21.272;2023-01-25T00:07:13;22.54;35.74
71514;DHT22;59335;46.652;21.272;2023-01-25T00:10:16;22.48;35.76
71514;DHT22;59335;46.652;21.272;2023-01-25T00:13:19;22.53;35.65
71514;DHT22;59335;46.652;21.272;2023-01-25T00:16:23;22.54;35.70
71514;DHT22;59335;46.652;21.272;2023-01-25T00:19:26;22.51;35.63
71514;DHT22;59335;46.652;21.272;2023-01-25T00:22:29;22.51;35.63
71514;DHT22;59335;46.652;21.272;2023-01-25T00:25:31;22.53;35.54
71514;DHT22;59335;46.652;21.272;2023-01-25T00:28:34;22.51;35.56
71514;DHT22;59335;46.652;21.272;2023-01-25T00:34:59;22.50;35.56
71514;DHT22;59335;46.652;21.272;2023-01-25T00:38:05;22.51;35.54
71514;DHT22;59335;46.652;21.272;2023-01-25T00:41:24;22.53;35.48
71514;DHT22;59335;46.652;21.272;2023-01-25T00:44:27;22.51;35.49
71514;DHT22;59335;46.652;21.272;2023-01-25T00:47:30;22.51;35.50
71514;DHT22;59335;46.652;21.272;2023-01-25T00:50:38;22.50;35.40
71514;DHT22;59335;46.652;21.272;2023-01-25T00:53:40;22.51;35.44
71514;DHT22;59335;46.652;21.272;2023-01-25T00:56:43;22.50;35.37
71514;DHT22;59335;46.652;21.272;2023-01-25T00:59:47;22.48;35.34
71514;DHT22;59335;46.652;21.272;2023-01-25T01:02:49;22.50;35.34
71514;DHT22;59335;46.652;21.272;2023-01-25T01:09:10;22.50;35.29
71514;DHT22;59335;46.652;21.272;2023-01-25T01:12:13;22.48;35.29
71514;DHT22;59335;46.652;21.272;2023-01-25T01:15:16;22.48;35.23
71514;DHT22;59335;46.652;21.272;2023-01-25T01:18:19;22.48;35.22
71514;DHT22;59335;46.652;21.272;2023-01-25T01:21:22;22.46;35.15
71514;DHT22;59335;46.652;21.272;2023-01-25T01:24:24;22.50;35.11
71514;DHT22;59335;46.652;21.272;2023-01-25T01:27:27;22.50;35.06
71514;DHT22;59335;46.652;21.272;2023-01-25T01:30:30;22.50;35.09
71514;DHT22;59335;46.652;21.272;2023-01-25T01:33:33;22.46;35.02
71514;DHT22;59335;46.652;21.272;2023-01-25T01:36:37;22.47;35.03
71514;DHT22;59335;46.652;21.272;2023-01-25T01:39:40;22.46;35.08
71514;DHT22;59335;46.652;21.272;2023-01-25T01:43:04;22.48;34.99
71514;DHT22;59335;46.652;21.272;2023-01-25T01:46:26;22.46;34.95
71514;DHT22;59335;46.652;21.272;2023-01-25T01:49:32;22.47;34.88
71514;DHT22;59335;46.652;21.272;2023-01-25T01:52:42;22.48;34.89
71514;DHT22;59335;46.652;21.272;2023-01-25T01:55:46;22.46;34.88
71514;DHT22;59335;46.652;21.272;2023-01-25T01:58:50;22.46;34.86
71514;DHT22;59335;46.652;21.272;2023-01-25T02:01:54;22.46;34.86
71514;DHT22;59335;46.652;21.272;2023-01-25T02:04:59;22.46;34.81
71514;DHT22;59335;46.652;21.272;2023-01-25T02:08:04;22.44;34.84
71514;DHT22;59335;46.652;21.272;2023-01-25T02:11:08;22.44;34.78
71514;DHT22;59335;46.652;21.272;2023-01-25T02:14:13;22.44;34.77
71514;DHT22;59335;46.652;21.272;2023-01-25T02:20:43;22.46;34.68
71514;DHT22;59335;46.652;21.272;2023-01-25T02:23:52;22.43;34.65
71514;DHT22;59335;46.652;21.272;2023-01-25T02:26:55;22.46;34.67
71514;DHT22;59335;46.652;21.272;2023-01-25T02:29:58;22.46;34.64
71514;DHT22;59335;46.652;21.272;2023-01-25T02:33:01;22.46;34.60
71514;DHT22;59335;46.652;21.272;2023-01-25T02:39:15;22.46;34.54
71514;DHT22;59335;46.652;21.272;2023-01-25T02:42:22;22.41;34.53
71514;DHT22;59335;46.652;21.272;2023-01-25T02:45:27;22.43;34.50
71514;DHT22;59335;46.652;21.272;2023-01-25T02:48:31;22.44;34.49
71514;DHT22;59335;46.652;21.272;2023-01-25T02:51:36;22.43;34.46
71514;DHT22;59335;46.652;21.272;2023-01-25T02:54:39;22.43;34.40
71514;DHT22;59335;46.652;21.272;2023-01-25T02:57:43;22.46;34.40
71514;DHT22;59335;46.652;21.272;2023-01-25T03:00:49;22.43;34.33
71514;DHT22;59335;46.652;21.272;2023-01-25T03:03:52;22.43;34.27
71514;DHT22;59335;46.652;21.272;2023-01-25T03:06:55;22.44;34.26
71514;DHT22;59335;46.652;21.272;2023-01-25T03:09:58;22.44;34.23
71514;DHT22;59335;46.652;21.272;2023-01-25T03:13:01;22.43;34.23
71514;DHT22;59335;46.652;21.272;2023-01-25T03:16:08;22.41;34.15
71514;DHT22;59335;46.652;21.272;2023-01-25T03:19:13;22.41;34.14
71514;DHT22;59335;46.652;21.272;2023-01-25T03:22:17;22.40;34.09
71514;DHT22;59335;46.652;21.272;2023-01-25T03:25:20;22.44;34.05
71514;DHT22;59335;46.652;21.272;2023-01-25T03:28:32;22.43;34.00
71514;DHT22;59335;46.652;21.272;2023-01-25T03:31:35;22.41;33.98
71514;DHT22;59335;46.652;21.272;2023-01-25T03:34:38;22.43;33.97
71514;DHT22;59335;46.652;21.272;2023-01-25T03:37:41;22.41;33.98
71514;DHT22;59335;46.652;21.272;2023-01-25T03:40:46;22.41;33.94
71514;DHT22;59335;46.652;21.272;2023-01-25T03:43:49;22.43;33.91
71514;DHT22;59335;46.652;21.272;2023-01-25T03:46:52;22.41;33.91
71514;DHT22;59335;46.652;21.272;2023-01-25T03:49:55;22.39;33.84
71514;DHT22;59335;46.652;21.272;2023-01-25T03:52:58;22.40;33.81
71514;DHT22;59335;46.652;21.272;2023-01-25T03:56:09;22.41;33.80
71514;DHT22;59335;46.652;21.272;2023-01-25T03:59:19;22.40;33.78
71514;DHT22;59335;46.652;21.272;2023-01-25T04:02:22;22.41;33.77
71514;DHT22;59335;46.652;21.272;2023-01-25T04:05:25;22.41;33.70
71514;DHT22;59335;46.652;21.272;2023-01-25T04:08:28;22.40;33.69
71514;DHT22;59335;46.652;21.272;2023-01-25T04:11:34;22.43;33.71
71514;DHT22;59335;46.652;21.272;2023-01-25T04:14:37;22.40;33.76
71514;DHT22;59335;46.652;21.272;2023-01-25T04:17:49;22.39;33.69
71514;DHT22;59335;46.652;21.272;2023-01-25T04:20:59;22.41;33.69
71514;DHT22;59335;46.652;21.272;2023-01-25T04:24:03;22.41;33.65
71514;DHT22;59335;46.652;21.272;2023-01-25T04:27:10;22.39;33.60
71514;DHT22;59335;46.652;21.272;2023-01-25T04:30:20;22.39;33.63
71514;DHT22;59335;46.652;21.272;2023-01-25T04:33:24;22.37;33.65
71514;DHT22;59335;46.652;21.272;2023-01-25T04:36:27;22.40;33.57
71514;DHT22;59335;46.652;21.272;2023-01-25T04:39:30;22.37;33.56
71514;DHT22;59335;46.652;21.272;2023-01-25T04:42:33;22.40;33.54
71514;DHT22;59335;46.652;21.272;2023-01-25T04:45:36;22.39;33.49
71514;DHT22;59335;46.652;21.272;2023-01-25T04:48:44;22.39;33.47
71514;DHT22;59335;46.652;21.272;2023-01-25T04:51:49;22.39;33.47
71514;DHT22;59335;46.652;21.272;2023-01-25T04:54:52;22.37;33.44
71514;DHT22;59335;46.652;21.272;2023-01-25T04:57:55;22.39;33.51
71514;DHT22;59335;46.652;21.272;2023-01-25T05:01:02;22.37;33.45
71514;DHT22;59335;46.652;21.272;2023-01-25T05:04:06;22.37;33.44
71514;DHT22;59335;46.652;21.272;2023-01-25T05:07:13;22.40;33.36
71514;DHT22;59335;46.652;21.272;2023-01-25T05:10:17;22.39;33.31
71514;DHT22;59335;46.652;21.272;2023-01-25T05:13:39;22.37;33.33
71514;DHT22;59335;46.652;21.272;2023-01-25T05:16:56;22.37;33.31
71514;DHT22;59335;46.652;21.272;2023-01-25T05:19:59;22.37;33.34
71514;DHT22;59335;46.652;21.272;2023-01-25T05:23:02;22.39;33.25
71514;DHT22;59335;46.652;21.272;2023-01-25T05:26:06;22.37;33.22
71514;DHT22;59335;46.652;21.272;2023-01-25T05:29:33;22.37;33.18
71514;DHT22;59335;46.652;21.272;2023-01-25T05:32:41;22.34;33.15
71514;DHT22;59335;46.652;21.272;2023-01-25T05:35:44;22.37;33.08
71514;DHT22;59335;46.652;21.272;2023-01-25T05:38:48;22.37;33.08
71514;DHT22;59335;46.652;21.272;2023-01-25T05:41:51;22.37;33.10
71514;DHT22;59335;46.652;21.272;2023-01-25T05:44:54;22.36;33.08
71514;DHT22;59335;46.652;21.272;2023-01-25T05:47:58;22.39;33.02
71514;DHT22;59335;46.652;21.272;2023-01-25T05:51:04;22.39;33.04
71514;DHT22;59335;46.652;21.272;2023-01-25T05:54:11;22.34;33.01
71514;DHT22;59335;46.652;21.272;2023-01-25T05:57:16;22.36;33.10
71514;DHT22;59335;46.652;21.272;2023-01-25T06:00:20;22.34;33.22
71514;DHT22;59335;46.652;21.272;2023-01-25T06:03:23;22.34;33.20
71514;DHT22;59335;46.652;21.272;2023-01-25T06:06:26;22.37;33.17
71514;DHT22;59335;46.652;21.272;2023-01-25T06:09:29;22.39;33.36
71514;DHT22;59335;46.652;21.272;2023-01-25T06:12:32;22.21;32.31
71514;DHT22;59335;46.652;21.272;2023-01-25T06:15:36;22.20;31.26
71514;DHT22;59335;46.652;21.272;2023-01-25T06:18:58;22.17;31.74
71514;DHT22;59335;46.652;21.272;2023-01-25T06:22:01;22.17;33.01
71514;DHT22;59335;46.652;21.272;2023-01-25T06:25:04;22.21;33.66
71514;DHT22;59335;46.652;21.272;2023-01-25T06:28:08;22.26;34.16
71514;DHT22;59335;46.652;21.272;2023-01-25T06:31:16;22.39;34.10
71514;DHT22;59335;46.652;21.272;2023-01-25T06:34:19;22.41;34.31
71514;DHT22;59335;46.652;21.272;2023-01-25T06:37:23;22.51;34.82
71514;DHT22;59335;46.652;21.272;2023-01-25T06:40:27;22.54;35.07
71514;DHT22;59335;46.652;21.272;2023-01-25T06:43:32;22.60;35.44
71514;DHT22;59335;46.652;21.272;2023-01-25T06:46:35;22.60;35.48
71514;DHT22;59335;46.652;21.272;2023-01-25T06:49:42;22.53;35.82
71514;DHT22;59335;46.652;21.272;2023-01-25T06:52:53;22.54;35.83
71514;DHT22;59335;46.652;21.272;2023-01-25T06:56:00;22.55;36.40
71514;DHT22;59335;46.652;21.272;2023-01-25T06:59:04;22.60;36.54
71514;DHT22;59335;46.652;21.272;2023-01-25T07:02:14;22.67;37.32
71514;DHT22;59335;46.652;21.272;2023-01-25T07:05:18;22.67;37.79
71514;DHT22;59335;46.652;21.272;2023-01-25T07:08:21;22.72;37.51
71514;DHT22;59335;46.652;21.272;2023-01-25T07:11:26;22.72;37.24
71514;DHT22;59335;46.652;21.272;2023-01-25T07:14:30;22.68;37.00
71514;DHT22;59335;46.652;21.272;2023-01-25T07:17:33;22.69;36.96
71514;DHT22;59335;46.652;21.272;2023-01-25T07:20:37;22.67;36.91
71514;DHT22;59335;46.652;21.272;2023-01-25T07:23:42;22.71;36.96
71514;DHT22;59335;46.652;21.272;2023-01-25T07:26:46;22.71;36.90
71514;DHT22;59335;46.652;21.272;2023-01-25T07:29:50;22.69;36.98
71514;DHT22;59335;46.652;21.272;2023-01-25T07:32:53;22.71;36.93
71514;DHT22;59335;46.652;21.272;2023-01-25T07:36:04;22.68;36.89
71514;DHT22;59335;46.652;21.272;2023-01-25T07:39:09;22.69;36.99
71514;DHT22;59335;46.652;21.272;2023-01-25T07:42:14;22.74;36.97
71514;DHT22;59335;46.652;21.272;2023-01-25T07:45:25;22.75;37.02
71514;DHT22;59335;46.652;21.272;2023-01-25T07:48:32;22.78;37.61
71514;DHT22;59335;46.652;21.272;2023-01-25T07:51:35;22.84;37.50
71514;DHT22;59335;46.652;21.272;2023-01-25T07:54:41;22.85;37.41
71514;DHT22;59335;46.652;21.272;2023-01-25T07:57:44;22.90;38.14
71514;DHT22;59335;46.652;21.272;2023-01-25T08:00:49;22.91;38.46
71514;DHT22;59335;46.652;21.272;2023-01-25T08:03:53;22.91;38.15
71514;DHT22;59335;46.652;21.272;2023-01-25T08:06:59;22.94;38.21
71514;DHT22;59335;46.652;21.272;2023-01-25T08:10:02;22.95;38.17
71514;DHT22;59335;46.652;21.272;2023-01-25T08:13:06;22.94;38.05
71514;DHT22;59335;46.652;21.272;2023-01-25T08:16:09;22.94;38.07
71514;DHT22;59335;46.652;21.272;2023-01-25T08:19:12;22.94;38.05
71514;DHT22;59335;46.652;21.272;2023-01-25T08:22:16;22.96;38.03
71514;DHT22;59335;46.652;21.272;2023-01-25T08:25:20;22.98;38.06
71514;DHT22;59335;46.652;21.272;2023-01-25T08:28:24;22.96;38.16
71514;DHT22;59335;46.652;21.272;2023-01-25T08:31:35;22.96;38.12
71514;DHT22;59335;46.652;21.272;2023-01-25T08:34:42;22.98;38.18
71514;DHT22;59335;46.652;21.272;2023-01-25T08:37:45;22.98;38.29
71514;DHT22;59335;46.652;21.272;2023-01-25T08:40:49;22.91;38.49
71514;DHT22;59335;46.652;21.272;2023-01-25T08:43:56;22.98;38.37
71514;DHT22;59335;46.652;21.272;2023-01-25T08:47:02;22.98;38.49
71514;DHT22;59335;46.652;21.272;2023-01-25T08:50:07;22.99;38.61
71514;DHT22;59335;46.652;21.272;2023-01-25T08:53:15;23.02;38.80
71514;DHT22;59335;46.652;21.272;2023-01-25T08:56:18;23.08;38.88
71514;DHT22;59335;46.652;21.272;2023-01-25T08:59:21;23.05;38.92
71514;DHT22;59335;46.652;21.272;2023-01-25T09:02:24;23.11;39.54
71514;DHT22;59335;46.652;21.272;2023-01-25T09:05:27;23.11;39.39
71514;DHT22;59335;46.652;21.272;2023-01-25T09:08:31;23.15;39.29
71514;DHT22;59335;46.652;21.272;2023-01-25T09:11:35;23.11;39.24
71514;DHT22;59335;46.652;21.272;2023-01-25T09:14:41;23.11;39.34
71514;DHT22;59335;46.652;21.272;2023-01-25T09:17:45;23.12;39.37
71514;DHT22;59335;46.652;21.272;2023-01-25T09:20:48;23.12;39.38
71514;DHT22;59335;46.652;21.272;2023-01-25T09:23:52;23.13;39.49
71514;DHT22;59335;46.652;21.272;2023-01-25T09:27:11;23.11;39.51
71514;DHT22;59335;46.652;21.272;2023-01-25T09:30:16;23.12;39.45
71514;DHT22;59335;46.652;21.272;2023-01-25T09:33:30;23.13;39.44
71514;DHT22;59335;46.652;21.272;2023-01-25T09:36:35;23.13;39.40
71514;DHT22;59335;46.652;21.272;2023-01-25T09:39:38;23.12;39.41
71514;DHT22;59335;46.652;21.272;2023-01-25T09:42:57;23.13;39.52
71514;DHT22;59335;46.652;21.272;2023-01-25T09:46:15;23.11;39.53
71514;DHT22;59335;46.652;21.272;2023-01-25T09:53:04;23.11;40.09
71514;DHT22;59335;46.652;21.272;2023-01-25T09:56:25;23.16;40.38
71514;DHT22;59335;46.652;21.272;2023-01-25T09:59:29;23.20;40.74
71514;DHT22;59335;46.652;21.272;2023-01-25T10:02:47;23.24;41.09
71514;DHT22;59335;46.652;21.272;2023-01-25T10:05:57;23.24;41.16
71514;DHT22;59335;46.652;21.272;2023-01-25T10:09:10;23.26;40.85
71514;DHT22;59335;46.652;21.272;2023-01-25T10:12:22;23.26;40.79
71514;DHT22;59335;46.652;21.272;2023-01-25T10:15:31;23.23;40.74
71514;DHT22;59335;46.652;21.272;2023-01-25T10:22:39;23.16;40.95
71514;DHT22;59335;46.652;21.272;2023-01-25T10:31:47;23.20;40.77
71514;DHT22;59335;46.652;21.272;2023-01-25T10:34:54;23.19;40.78
71514;DHT22;59335;46.652;21.272;2023-01-25T10:38:06;23.20;40.67
71514;DHT22;59335;46.652;21.272;2023-01-25T10:41:43;23.22;40.80
71514;DHT22;59335;46.652;21.272;2023-01-25T10:44:49;23.16;40.78
71514;DHT22;59335;46.652;21.272;2023-01-25T10:47:55;23.16;40.94
71514;DHT22;59335;46.652;21.272;2023-01-25T10:51:07;23.19;41.11
71514;DHT22;59335;46.652;21.272;2023-01-25T10:54:14;23.19;40.93
71514;DHT22;59335;46.652;21.272;2023-01-25T10:57:23;23.22;40.96
71514;DHT22;59335;46.652;21.272;2023-01-25T11:00:36;23.24;41.31
71514;DHT22;59335;46.652;21.272;2023-01-25T11:03:44;23.26;41.33
71514;DHT22;59335;46.652;21.272;2023-01-25T11:06:48;23.24;41.30
71514;DHT22;59335;46.652;21.272;2023-01-25T11:09:53;23.29;41.30
71514;DHT22;59335;46.652;21.272;2023-01-25T11:13:28;23.29;41.24
71514;DHT22;59335;46.652;21.272;2023-01-25T11:16:39;23.32;41.20
71514;DHT22;59335;46.652;21.272;2023-01-25T11:19:42;23.29;41.30
71514;DHT22;59335;46.652;21.272;2023-01-25T11:22:53;23.29;41.49
71514;DHT22;59335;46.652;21.272;2023-01-25T11:26:11;23.30;41.62
71514;DHT22;59335;46.652;21.272;2023-01-25T11:29:18;23.22;41.13
71514;DHT22;59335;46.652;21.272;2023-01-25T11:32:22;23.27;41.17
71514;DHT22;59335;46.652;21.272;2023-01-25T11:35:32;23.19;40.06
71514;DHT22;59335;46.652;21.272;2023-01-25T11:38:46;23.18;39.69
71514;DHT22;59335;46.652;21.272;2023-01-25T11:42:25;23.13;40.18
71514;DHT22;59335;46.652;21.272;2023-01-25T11:45:47;23.19;40.51
71514;DHT22;59335;46.652;21.272;2023-01-25T11:56:00;23.22;40.29
71514;DHT22;59335;46.652;21.272;2023-01-25T12:03:19;23.29;40.78
71514;DHT22;59335;46.652;21.272;2023-01-25T12:06:38;23.27;40.80
71514;DHT22;59335;46.652;21.272;2023-01-25T12:20:27;23.29;40.76
71514;DHT22;59335;46.652;21.272;2023-01-25T12:27:09;23.38;40.68
71514;DHT22;59335;46.652;21.272;2023-01-25T12:30:21;23.45;40.93
71514;DHT22;59335;46.652;21.272;2023-01-25T12:33:55;23.46;40.82
71514;DHT22;59335;46.652;21.272;2023-01-25T12:40:22;23.49;40.89
71514;DHT22;59335;46.652;21.272;2023-01-25T12:43:51;23.51;40.92
71514;DHT22;59335;46.652;21.272;2023-01-25T12:50:53;23.49;41.32
71514;DHT22;59335;46.652;21.272;2023-01-25T12:53:59;23.50;40.78
71514;DHT22;59335;46.652;21.272;2023-01-25T13:10:25;23.50;41.20
71514;DHT22;59335;46.652;21.272;2023-01-25T13:13:30;23.47;41.17
71514;DHT22;59335;46.652;21.272;2023-01-25T13:19:49;23.47;41.10
71514;DHT22;59335;46.652;21.272;2023-01-25T13:22:53;23.46;41.10
71514;DHT22;59335;46.652;21.272;2023-01-25T13:35:39;23.39;41.09
71514;DHT22;59335;46.652;21.272;2023-01-25T13:38:42;23.42;41.08
71514;DHT22;59335;46.652;21.272;2023-01-25T13:45:17;23.42;40.95
71514;DHT22;59335;46.652;21.272;2023-01-25T13:48:25;23.42;40.97
71514;DHT22;59335;46.652;21.272;2023-01-25T13:51:33;23.39;41.24
71514;DHT22;59335;46.652;21.272;2023-01-25T13:54:47;23.42;41.43
71514;DHT22;59335;46.652;21.272;2023-01-25T13:57:51;23.40;41.60
71514;DHT22;59335;46.652;21.272;2023-01-25T14:00:59;23.40;41.23
71514;DHT22;59335;46.652;21.272;2023-01-25T14:04:10;23.38;41.23
71514;DHT22;59335;46.652;21.272;2023-01-25T14:07:17;23.39;41.13
71514;DHT22;59335;46.652;21.272;2023-01-25T14:10:24;23.38;40.93
71514;DHT22;59335;46.652;21.272;2023-01-25T14:13:28;23.39;40.85
71514;DHT22;59335;46.652;21.272;2023-01-25T14:16:31;23.34;40.76
71514;DHT22;59335;46.652;21.272;2023-01-25T14:19:36;23.34;40.75
71514;DHT22;59335;46.652;21.272;2023-01-25T14:22:40;23.33;40.43
71514;DHT22;59335;46.652;21.272;2023-01-25T14:25:48;23.30;40.52
71514;DHT22;59335;46.652;21.272;2023-01-25T14:28:56;23.23;39.63
71514;DHT22;59335;46.652;21.272;2023-01-25T14:32:04;23.22;39.98
71514;DHT22;59335;46.652;21.272;2023-01-25T14:38:56;23.20;39.92
71514;DHT22;59335;46.652;21.272;2023-01-25T14:42:00;23.18;40.04
71514;DHT22;59335;46.652;21.272;2023-01-25T14:45:03;23.16;39.99
71514;DHT22;59335;46.652;21.272;2023-01-25T14:48:39;23.16;39.86
71514;DHT22;59335;46.652;21.272;2023-01-25T14:51:45;23.13;39.84
71514;DHT22;59335;46.652;21.272;2023-01-25T14:54:55;23.12;39.72
71514;DHT22;59335;46.652;21.272;2023-01-25T14:57:59;23.05;39.81
71514;DHT22;59335;46.652;21.272;2023-01-25T15:01:04;23.06;39.77
71514;DHT22;59335;46.652;21.272;2023-01-25T15:04:11;23.08;39.77
71514;DHT22;59335;46.652;21.272;2023-01-25T15:10:55;23.05;39.41
71514;DHT22;59335;46.652;21.272;2023-01-25T15:14:15;23.03;39.15
71514;DHT22;59335;46.652;21.272;2023-01-25T15:17:44;23.05;38.95
71514;DHT22;59335;46.652;21.272;2023-01-25T15:20:50;23.01;38.77
71514;DHT22;59335;46.652;21.272;2023-01-25T15:23:55;23.01;38.62
71514;DHT22;59335;46.652;21.272;2023-01-25T15:26:59;22.99;38.51
71514;DHT22;59335;46.652;21.272;2023-01-25T15:30:02;22.99;38.44
71514;DHT22;59335;46.652;21.272;2023-01-25T15:33:16;22.98;38.37
71514;DHT22;59335;46.652;21.272;2023-01-25T15:36:19;22.99;38.26
71514;DHT22;59335;46.652;21.272;2023-01-25T15:39:23;22.98;38.13
71514;DHT22;59335;46.652;21.272;2023-01-25T15:42:25;22.94;37.99
71514;DHT22;59335;46.652;21.272;2023-01-25T15:45:31;22.98;37.86
71514;DHT22;59335;46.652;21.272;2023-01-25T15:48:40;22.96;37.77
71514;DHT22;59335;46.652;21.272;2023-01-25T15:51:44;22.95;37.65
71514;DHT22;59335;46.652;21.272;2023-01-25T15:54:47;22.92;37.54
71514;DHT22;59335;46.652;21.272;2023-01-25T15:58:03;22.92;37.46
71514;DHT22;59335;46.652;21.272;2023-01-25T16:01:07;22.88;37.35
71514;DHT22;59335;46.652;21.272;2023-01-25T16:04:10;22.92;37.29
71514;DHT22;59335;46.652;21.272;2023-01-25T16:07:23;22.88;37.83
71514;DHT22;59335;46.652;21.272;2023-01-25T16:10:27;22.61;53.18
71514;DHT22;59335;46.652;21.272;2023-01-25T16:13:30;22.58;56.87
71514;DHT22;59335;46.652;21.272;2023-01-25T16:16:38;22.67;53.54
71514;DHT22;59335;46.652;21.272;2023-01-25T16:19:41;22.69;50.51
71514;DHT22;59335;46.652;21.272;2023-01-25T16:22:48;22.71;48.85
71514;DHT22;59335;46.652;21.272;2023-01-25T16:25:52;22.71;46.70
71514;DHT22;59335;46.652;21.272;2023-01-25T16:28:55;22.72;45.22
71514;DHT22;59335;46.652;21.272;2023-01-25T16:32:00;22.76;43.96
71514;DHT22;59335;46.652;21.272;2023-01-25T16:35:03;22.75;43.35
71514;DHT22;59335;46.652;21.272;2023-01-25T16:38:10;22.78;42.76
71514;DHT22;59335;46.652;21.272;2023-01-25T16:41:15;22.76;42.29
71514;DHT22;59335;46.652;21.272;2023-01-25T16:44:18;22.75;42.07
71514;DHT22;59335;46.652;21.272;2023-01-25T16:47:21;22.76;41.93
71514;DHT22;59335;46.652;21.272;2023-01-25T16:50:30;22.76;41.79
71514;DHT22;59335;46.652;21.272;2023-01-25T16:53:34;22.78;41.81
71514;DHT22;59335;46.652;21.272;2023-01-25T16:56:38;22.76;42.13
71514;DHT22;59335;46.652;21.272;2023-01-25T16:59:42;22.79;42.30
71514;DHT22;59335;46.652;21.272;2023-01-25T17:02:46;22.79;42.45
71514;DHT22;59335;46.652;21.272;2023-01-25T17:06:01;22.82;42.66
71514;DHT22;59335;46.652;21.272;2023-01-25T17:09:07;22.82;42.72
71514;DHT22;59335;46.652;21.272;2023-01-25T17:12:25;22.82;42.75
71514;DHT22;59335;46.652;21.272;2023-01-25T17:15:29;22.84;42.80
71514;DHT22;59335;46.652;21.272;2023-01-25T17:18:36;22.84;42.79
71514;DHT22;59335;46.652;21.272;2023-01-25T17:21:42;22.84;42.78
71514;DHT22;59335;46.652;21.272;2023-01-25T17:24:45;22.84;42.71
71514;DHT22;59335;46.652;21.272;2023-01-25T17:27:49;22.84;42.54
71514;DHT22;59335;46.652;21.272;2023-01-25T17:30:54;22.84;42.04
71514;DHT22;59335;46.652;21.272;2023-01-25T17:34:02;22.82;41.70
71514;DHT22;59335;46.652;21.272;2023-01-25T17:37:08;22.82;41.35
71514;DHT22;59335;46.652;21.272;2023-01-25T17:40:13;22.81;41.11
71514;DHT22;59335;46.652;21.272;2023-01-25T17:43:17;22.79;40.72
71514;DHT22;59335;46.652;21.272;2023-01-25T17:46:25;22.79;40.56
71514;DHT22;59335;46.652;21.272;2023-01-25T17:49:32;22.79;40.34
71514;DHT22;59335;46.652;21.272;2023-01-25T17:52:37;22.79;40.16
71514;DHT22;59335;46.652;21.272;2023-01-25T17:55:41;22.78;39.97
71514;DHT22;59335;46.652;21.272;2023-01-25T17:58:46;22.74;39.75
71514;DHT22;59335;46.652;21.272;2023-01-25T18:01:51;22.79;39.59
71514;DHT22;59335;46.652;21.272;2023-01-25T18:04:55;22.75;39.48
71514;DHT22;59335;46.652;21.272;2023-01-25T18:08:02;22.75;39.28
71514;DHT22;59335;46.652;21.272;2023-01-25T18:11:08;22.75;39.17
71514;DHT22;59335;46.652;21.272;2023-01-25T18:14:15;22.74;39.08
71514;DHT22;59335;46.652;21.272;2023-01-25T18:17:20;22.74;38.94
71514;DHT22;59335;46.652;21.272;2023-01-25T18:20:27;22.74;38.80
71514;DHT22;59335;46.652;21.272;2023-01-25T18:23:34;22.74;38.65
71514;DHT22;59335;46.652;21.272;2023-01-25T18:26:39;22.72;38.52
71514;DHT22;59335;46.652;21.272;2023-01-25T18:29:59;22.74;38.42
71514;DHT22;59335;46.652;21.272;2023-01-25T18:33:04;22.72;38.33
71514;DHT22;59335;46.652;21.272;2023-01-25T18:36:17;22.74;38.26
71514;DHT22;59335;46.652;21.272;2023-01-25T18:39:23;22.71;38.08
71514;DHT22;59335;46.652;21.272;2023-01-25T18:42:27;22.72;38.00
71514;DHT22;59335;46.652;21.272;2023-01-25T18:45:32;22.69;37.88
71514;DHT22;59335;46.652;21.272;2023-01-25T18:48:38;22.69;37.75
71514;DHT22;59335;46.652;21.272;2023-01-25T18:51:46;22.69;37.67
71514;DHT22;59335;46.652;21.272;2023-01-25T18:55:12;22.71;37.53
71514;DHT22;59335;46.652;21.272;2023-01-25T18:58:17;22.69;37.46
71514;DHT22;59335;46.652;21.272;2023-01-25T19:01:25;22.69;37.36
71514;DHT22;59335;46.652;21.272;2023-01-25T19:04:30;22.67;37.26
71514;DHT22;59335;46.652;21.272;2023-01-25T19:07:35;22.68;37.29
71514;DHT22;59335;46.652;21.272;2023-01-25T19:10:44;22.68;37.17
71514;DHT22;59335;46.652;21.272;2023-01-25T19:13:52;22.65;37.09
71514;DHT22;59335;46.652;21.272;2023-01-25T19:16:58;22.67;37.01
71514;DHT22;59335;46.652;21.272;2023-01-25T19:20:09;22.65;36.90
71514;DHT22;59335;46.652;21.272;2023-01-25T19:23:14;22.64;36.86
71514;DHT22;59335;46.652;21.272;2023-01-25T19:26:21;22.65;36.70
71514;DHT22;59335;46.652;21.272;2023-01-25T19:29:28;22.65;36.71
71514;DHT22;59335;46.652;21.272;2023-01-25T19:32:34;22.65;36.63
71514;DHT22;59335;46.652;21.272;2023-01-25T19:35:38;22.64;36.52
71514;DHT22;59335;46.652;21.272;2023-01-25T19:38:43;22.65;36.53
71514;DHT22;59335;46.652;21.272;2023-01-25T19:41:53;22.64;36.49
71514;DHT22;59335;46.652;21.272;2023-01-25T19:45:00;22.64;36.35
71514;DHT22;59335;46.652;21.272;2023-01-25T19:48:06;22.67;36.32
71514;DHT22;59335;46.652;21.272;2023-01-25T19:54:20;22.64;36.18
71514;DHT22;59335;46.652;21.272;2023-01-25T19:57:27;22.61;36.19
71514;DHT22;59335;46.652;21.272;2023-01-25T20:00:33;22.61;36.10
71514;DHT22;59335;46.652;21.272;2023-01-25T20:03:39;22.63;36.05
71514;DHT22;59335;46.652;21.272;2023-01-25T20:06:44;22.63;36.01
71514;DHT22;59335;46.652;21.272;2023-01-25T20:09:50;22.63;35.97
71514;DHT22;59335;46.652;21.272;2023-01-25T20:12:56;22.63;35.87
71514;DHT22;59335;46.652;21.272;2023-01-25T20:16:02;22.61;35.82
71514;DHT22;59335;46.652;21.272;2023-01-25T20:19:11;22.60;35.86
71514;DHT22;59335;46.652;21.272;2023-01-25T20:22:16;22.60;35.77
71514;DHT22;59335;46.652;21.272;2023-01-25T20:25:21;22.58;35.66
71514;DHT22;59335;46.652;21.272;2023-01-25T20:28:26;22.61;35.67
71514;DHT22;59335;46.652;21.272;2023-01-25T20:31:41;22.60;35.63
71514;DHT22;59335;46.652;21.272;2023-01-25T20:34:45;22.58;35.53
71514;DHT22;59335;46.652;21.272;2023-01-25T20:37:52;22.57;35.53
71514;DHT22;59335;46.652;21.272;2023-01-25T20:41:08;22.57;35.48
71514;DHT22;59335;46.652;21.272;2023-01-25T20:44:15;22.58;35.41
71514;DHT22;59335;46.652;21.272;2023-01-25T20:47:21;22.60;35.39
71514;DHT22;59335;46.652;21.272;2023-01-25T20:50:28;22.60;35.31
71514;DHT22;59335;46.652;21.272;2023-01-25T20:53:32;22.57;35.32
71514;DHT22;59335;46.652;21.272;2023-01-25T20:56:36;22.57;35.27
71514;DHT22;59335;46.652;21.272;2023-01-25T20:59:43;22.57;35.22